createdAt,value
2022-08-09T00:01:10.601Z,19.35
2022-08-09T00:04:00.217Z,19.23
2022-08-09T00:06:27.787Z,19.34
2022-08-09T00:08:57.549Z,19.48
2022-08-09T00:11:27.588Z,19.49
2022-08-09T00:13:55.603Z,19.63
2022-08-09T00:16:26.546Z,19.60
2022-08-09T00:19:09.360Z,19.55
2022-08-09T00:21:55.692Z,19.52
2022-08-09T00:24:24.420Z,19.48
2022-08-09T00:26:51.238Z,19.97
2022-08-09T00:29:39.613Z,19.73
2022-08-09T00:32:06.110Z,19.60
2022-08-09T00:34:33.582Z,19.71
2022-08-09T00:37:00.402Z,19.69
2022-08-09T00:40:14.006Z,19.57
2022-08-09T00:44:10.960Z,19.69
2022-08-09T00:45:03.559Z,19.71
2022-08-09T00:47:42.037Z,19.78
2022-08-09T00:50:14.807Z,19.66
2022-08-09T00:52:42.290Z,19.65
2022-08-09T00:55:10.361Z,19.54
2022-08-09T00:57:59.272Z,19.54
2022-08-09T01:00:27.141Z,19.49
2022-08-09T01:02:57.854Z,19.90
2022-08-09T01:06:17.843Z,19.69
2022-08-09T01:09:36.503Z,19.58
2022-08-09T01:12:12.865Z,19.47
2022-08-09T01:14:52.946Z,19.33
2022-08-09T01:17:25.952Z,19.40
2022-08-09T01:20:14.959Z,19.30
2022-08-09T01:22:51.201Z,19.15
2022-08-09T01:25:42.226Z,19.23
2022-08-09T01:28:16.824Z,19.10
2022-08-09T01:30:51.771Z,19.10
2022-08-09T01:33:25.416Z,19.04
2022-08-09T01:36:13.713Z,19.18
2022-08-09T01:38:46.615Z,19.17
2022-08-09T01:41:16.124Z,19.42
2022-08-09T01:43:51.493Z,18.87
2022-08-09T01:46:41.586Z,18.58
2022-08-09T01:49:17.676Z,18.71
2022-08-09T01:52:07.521Z,18.57
2022-08-09T01:55:02.119Z,18.83
2022-08-09T01:57:40.220Z,18.55
2022-08-09T02:00:19.436Z,18.69
2022-08-09T02:03:02.982Z,18.72
2022-08-09T02:05:38.069Z,18.95
2022-08-09T02:08:38.672Z,18.87
2022-08-09T02:11:17.221Z,18.62
2022-08-09T02:14:06.476Z,18.45
2022-08-09T02:16:59.667Z,18.56
2022-08-09T02:19:22.869Z,18.44
2022-08-09T02:21:55.915Z,18.48
2022-08-09T02:24:35.281Z,18.40
2022-08-09T02:27:05.983Z,18.53
2022-08-09T02:29:39.148Z,18.70
2022-08-09T02:32:10.379Z,18.68
2022-08-09T02:34:41.753Z,18.74
2022-08-09T02:37:24.213Z,18.71
2022-08-09T02:40:12.260Z,18.73
2022-08-09T02:42:42.172Z,18.40
2022-08-09T02:45:13.685Z,18.54
2022-08-09T02:47:57.351Z,18.54
2022-08-09T02:50:51.898Z,18.50
2022-08-09T02:53:26.894Z,18.43
2022-08-09T02:55:57.955Z,18.40
2022-08-09T02:58:36.153Z,18.43
2022-08-09T03:01:07.948Z,18.37
2022-08-09T03:04:16.924Z,18.31
2022-08-09T03:06:27.408Z,18.38
2022-08-09T03:08:55.866Z,18.14
2022-08-09T03:11:29.572Z,18.06
2022-08-09T03:14:12.281Z,18.01
2022-08-09T03:16:45.167Z,17.93
2022-08-09T03:19:52.470Z,17.92
2022-08-09T03:22:12.096Z,17.85
2022-08-09T03:25:06.694Z,17.82
2022-08-09T03:27:44.997Z,17.61
2022-08-09T03:30:13.875Z,17.46
2022-08-09T03:32:41.727Z,17.73
2022-08-09T03:35:24.156Z,17.60
2022-08-09T03:37:59.949Z,17.46
2022-08-09T03:40:31.145Z,17.23
2022-08-09T03:42:58.037Z,17.16
2022-08-09T03:46:04.475Z,17.22
2022-08-09T03:48:11.377Z,17.25
2022-08-09T03:50:45.891Z,17.06
2022-08-09T03:53:16.906Z,16.94
2022-08-09T03:55:48.139Z,17.11
2022-08-09T03:58:16.674Z,17.15
2022-08-09T04:00:45.535Z,17.02
2022-08-09T04:03:24.700Z,17.06
2022-08-09T04:05:59.744Z,16.78
2022-08-09T04:08:31.239Z,16.85
2022-08-09T04:11:01.421Z,16.80
2022-08-09T04:14:37.280Z,17.12
2022-08-09T04:16:20.292Z,17.00
2022-08-09T04:18:50.933Z,17.01
2022-08-09T04:21:18.994Z,16.96
2022-08-09T04:23:53.976Z,17.03
2022-08-09T04:26:23.301Z,17.26
2022-08-09T04:28:50.554Z,17.86
2022-08-09T04:31:17.306Z,17.84
2022-08-09T04:33:51.847Z,17.99
2022-08-09T04:36:24.963Z,18.02
2022-08-09T04:38:53.715Z,18.08
2022-08-09T04:41:23.722Z,18.19
2022-08-09T04:44:05.066Z,18.52
2022-08-09T04:46:37.675Z,18.62
2022-08-09T04:49:30.259Z,18.57
2022-08-09T04:52:09.769Z,18.58
2022-08-09T04:54:36.925Z,18.74
2022-08-09T04:57:04.109Z,18.85
2022-08-09T04:59:31.757Z,18.99
2022-08-09T05:01:58.595Z,19.17
2022-08-09T05:04:31.115Z,19.27
2022-08-09T05:06:58.092Z,19.41
2022-08-09T05:09:24.957Z,19.49
2022-08-09T05:12:09.591Z,19.56
2022-08-09T05:14:37.902Z,19.63
2022-08-09T05:17:15.200Z,19.87
2022-08-09T05:19:56.828Z,19.79
2022-08-09T05:22:33.601Z,19.82
2022-08-09T05:25:10.931Z,20.17
2022-08-09T05:27:45.457Z,20.48
2022-08-09T05:30:15.342Z,20.62
2022-08-09T05:32:45.591Z,20.66
2022-08-09T05:35:18.293Z,20.92
2022-08-09T05:37:50.337Z,21.11
2022-08-09T05:40:18.303Z,20.62
2022-08-09T05:42:45.530Z,21.10
2022-08-09T05:45:14.576Z,21.52
2022-08-09T05:47:45.609Z,21.71
2022-08-09T05:50:35.108Z,22.40
2022-08-09T05:53:06.063Z,22.28
2022-08-09T05:55:38.589Z,22.01
2022-08-09T05:58:07.238Z,22.41
2022-08-09T06:00:34.136Z,21.32
2022-08-09T06:03:03.436Z,21.65
2022-08-09T06:05:57.565Z,22.01
2022-08-09T06:10:56.991Z,21.70
2022-08-09T06:13:25.717Z,22.40
2022-08-09T06:15:55.290Z,22.95
2022-08-09T06:18:25.159Z,22.19
2022-08-09T06:20:57.778Z,23.36
2022-08-09T06:23:57.135Z,23.74
2022-08-09T06:26:22.708Z,23.96
2022-08-09T06:29:00.148Z,23.73
2022-08-09T06:31:31.457Z,22.73
2022-08-09T06:34:07.235Z,23.96
2022-08-09T06:36:34.139Z,24.66
2022-08-09T06:39:02.628Z,23.88
2022-08-09T06:42:01.234Z,23.29
2022-08-09T06:44:24.650Z,23.41
2022-08-09T06:46:55.484Z,24.02
2022-08-09T06:49:44.953Z,24.05
2022-08-09T06:52:10.643Z,23.45
2022-08-09T06:54:38.812Z,23.41
2022-08-09T06:57:08.359Z,24.29
2022-08-09T07:00:55.691Z,24.45
2022-08-09T07:02:21.822Z,23.67
2022-08-09T07:04:56.040Z,24.35
2022-08-09T07:07:59.902Z,24.91
2022-08-09T07:10:22.581Z,26.04
2022-08-09T07:12:57.154Z,26.38
2022-08-09T07:16:34.955Z,27.18
2022-08-09T07:18:11.216Z,27.66
2022-08-09T07:20:43.363Z,27.73
2022-08-09T07:23:18.157Z,27.79
2022-08-09T07:25:46.514Z,28.53
2022-08-09T07:28:19.175Z,27.70
2022-08-09T07:30:54.011Z,28.33
2022-08-09T07:33:22.102Z,28.64
2022-08-09T07:35:54.424Z,28.73
2022-08-09T07:38:21.522Z,27.84
2022-08-09T07:41:10.066Z,28.93
2022-08-09T07:43:40.975Z,28.80
2022-08-09T07:46:08.427Z,29.54
2022-08-09T07:48:39.268Z,29.51
2022-08-09T07:52:03.056Z,29.80
2022-08-09T07:54:05.430Z,29.34
2022-08-09T07:56:36.964Z,29.42
2022-08-09T07:59:15.025Z,29.68
2022-08-09T08:01:53.184Z,29.81
2022-08-09T08:04:20.233Z,29.57
2022-08-09T08:07:00.087Z,30.03
2022-08-09T08:09:42.997Z,29.34
2022-08-09T08:12:27.763Z,30.67
2022-08-09T08:14:55.274Z,30.15
2022-08-09T08:17:35.355Z,29.20
2022-08-09T08:20:13.189Z,29.68
2022-08-09T08:22:41.061Z,30.92
2022-08-09T08:25:13.579Z,30.10
2022-08-09T08:27:43.074Z,30.51
2022-08-09T08:30:11.757Z,31.02
2022-08-09T08:32:52.809Z,29.71
2022-08-09T08:35:22.512Z,29.28
2022-08-09T08:38:02.177Z,31.09
2022-08-09T08:40:32.469Z,30.05
2022-08-09T08:43:03.146Z,30.43
2022-08-09T08:45:51.692Z,31.68
2022-08-09T08:48:22.591Z,31.41
2022-08-09T08:50:57.351Z,31.75
2022-08-09T08:53:32.133Z,30.11
2022-08-09T08:56:06.995Z,30.30
2022-08-09T08:58:36.108Z,30.95
2022-08-09T09:01:08.877Z,31.53
2022-08-09T09:03:37.549Z,31.80
2022-08-09T09:06:07.194Z,30.89
2022-08-09T09:08:41.053Z,32.36
2022-08-09T09:11:17.578Z,31.04
2022-08-09T09:13:56.554Z,31.71
2022-08-09T09:16:32.239Z,30.91
2022-08-09T09:22:04.272Z,31.66
2022-08-09T09:24:35.244Z,32.27
2022-08-09T09:27:06.556Z,33.03
2022-08-09T09:30:11.525Z,31.61
2022-08-09T09:32:34.161Z,32.28
2022-08-09T09:35:07.778Z,31.92
2022-08-09T09:37:36.414Z,31.90
2022-08-09T09:40:08.062Z,30.25
2022-08-09T09:42:36.334Z,31.70
2022-08-09T09:45:08.100Z,30.84
2022-08-09T09:47:47.769Z,29.42
2022-08-09T09:50:17.362Z,30.02
2022-08-09T09:52:56.051Z,31.46
2022-08-09T09:55:32.069Z,31.58
2022-08-09T09:58:18.996Z,33.10
2022-08-09T10:00:59.167Z,33.41
2022-08-09T10:03:56.268Z,31.57
2022-08-09T10:06:26.313Z,31.08
2022-08-09T10:09:00.776Z,31.87
2022-08-09T10:12:01.412Z,32.66
2022-08-09T10:14:33.105Z,30.46
2022-08-09T10:17:40.304Z,32.00
2022-08-09T10:19:58.917Z,33.24
2022-08-09T10:22:34.673Z,35.25
2022-08-09T10:25:11.265Z,34.75
2022-08-09T10:27:56.141Z,32.99
2022-08-09T10:33:29.661Z,34.44
2022-08-09T10:36:02.369Z,32.36
2022-08-09T10:38:54.946Z,32.26
2022-08-09T10:41:18.600Z,34.58
2022-08-09T10:43:58.825Z,33.95
2022-08-09T10:47:20.487Z,33.37
2022-08-09T10:50:27.240Z,30.59
2022-08-09T10:53:10.614Z,33.53
2022-08-09T10:55:58.285Z,31.95
2022-08-09T10:58:35.155Z,34.22
2022-08-09T11:03:03.300Z,34.55
2022-08-09T11:04:30.922Z,34.38
2022-08-09T11:06:59.993Z,35.48
2022-08-09T11:09:46.127Z,36.18
2022-08-09T11:12:18.218Z,35.30
2022-08-09T11:14:57.361Z,34.68
2022-08-09T11:17:26.790Z,32.85
2022-08-09T11:20:10.043Z,34.86
2022-08-09T11:22:45.032Z,35.73
2022-08-09T11:25:19.356Z,33.71
2022-08-09T11:28:04.930Z,33.84
2022-08-09T11:30:47.828Z,35.41
2022-08-09T11:33:17.636Z,37.27
2022-08-09T11:35:49.671Z,35.69
2022-08-09T11:38:41.611Z,35.44
2022-08-09T11:41:14.196Z,32.85
2022-08-09T11:43:48.678Z,33.29
2022-08-09T11:46:26.683Z,35.19
2022-08-09T11:49:00.023Z,35.60
2022-08-09T11:53:03.586Z,35.43
2022-08-09T11:54:27.927Z,34.10
2022-08-09T11:57:47.699Z,35.13
2022-08-09T12:00:27.312Z,37.45
2022-08-09T12:02:57.405Z,37.37
2022-08-09T12:05:37.591Z,36.43
2022-08-09T12:08:12.177Z,36.21
2022-08-09T12:10:53.581Z,33.14
2022-08-09T12:14:07.194Z,35.34
2022-08-09T12:16:42.005Z,34.46
2022-08-09T12:19:12.916Z,35.64
2022-08-09T12:21:50.835Z,33.74
2022-08-09T12:24:25.877Z,36.04
2022-08-09T12:29:09.978Z,34.47
2022-08-09T12:30:01.809Z,36.37
2022-08-09T12:32:44.232Z,32.73
2022-08-09T12:35:16.947Z,35.31
2022-08-09T12:37:50.077Z,36.57
2022-08-09T12:40:18.889Z,36.41
2022-08-09T12:42:50.449Z,36.58
2022-08-09T12:45:33.451Z,36.68
2022-08-09T12:48:03.173Z,37.15
2022-08-09T12:50:30.401Z,37.53
2022-08-09T12:53:17.583Z,35.08
2022-08-09T12:56:16.166Z,31.91
2022-08-09T12:58:30.622Z,33.39
2022-08-09T13:00:58.827Z,35.12
2022-08-09T13:03:58.576Z,35.45
2022-08-09T13:06:39.109Z,35.73
2022-08-09T13:09:12.661Z,34.88
2022-08-09T13:11:45.867Z,33.66
2022-08-09T13:14:40.733Z,33.19
2022-08-09T13:17:21.954Z,33.79
2022-08-09T13:20:13.222Z,34.00
2022-08-09T13:23:05.564Z,34.93
2022-08-09T13:25:54.723Z,35.84
2022-08-09T13:28:34.065Z,36.00
2022-08-09T13:32:13.653Z,35.46
2022-08-09T13:33:57.039Z,35.59
2022-08-09T13:36:41.605Z,33.43
2022-08-09T13:41:17.737Z,32.92
2022-08-09T13:42:12.523Z,34.65
2022-08-09T13:44:42.196Z,35.37
2022-08-09T13:47:31.510Z,34.10
2022-08-09T13:50:12.439Z,33.69
2022-08-09T13:52:41.796Z,35.59
2022-08-09T13:55:13.466Z,35.68
2022-08-09T13:57:47.288Z,34.94
2022-08-09T14:00:23.131Z,35.70
2022-08-09T14:03:03.603Z,35.26
2022-08-09T14:06:00.089Z,32.87
2022-08-09T14:08:30.140Z,33.20
2022-08-09T14:10:57.240Z,33.07
2022-08-09T14:14:15.429Z,34.49
2022-08-09T14:16:14.972Z,34.88
2022-08-09T14:18:45.774Z,35.13
2022-08-09T14:21:18.081Z,34.48
2022-08-09T14:23:54.642Z,34.66
2022-08-09T14:26:25.218Z,34.05
2022-08-09T14:28:52.167Z,33.74
2022-08-09T14:31:18.815Z,31.18
2022-08-09T14:33:52.226Z,33.05
2022-08-09T14:36:21.492Z,33.89
2022-08-09T14:38:52.710Z,34.12
2022-08-09T14:41:39.814Z,33.71
2022-08-09T14:44:07.120Z,33.61
2022-08-09T14:47:00.904Z,33.27
2022-08-09T14:49:24.952Z,32.60
2022-08-09T14:51:51.916Z,33.84
2022-08-09T14:54:28.330Z,34.38
2022-08-09T14:56:58.677Z,34.75
2022-08-09T14:59:27.272Z,34.49
2022-08-09T15:01:55.603Z,34.70
2022-08-09T15:04:23.529Z,35.45
2022-08-09T15:06:51.628Z,35.31
2022-08-09T15:10:03.571Z,34.89
2022-08-09T15:12:08.000Z,35.22
2022-08-09T15:14:38.149Z,33.27
2022-08-09T15:17:09.255Z,34.51
2022-08-09T15:19:37.094Z,33.96
2022-08-09T15:22:25.879Z,33.68
2022-08-09T15:24:53.577Z,33.35
2022-08-09T15:27:21.169Z,32.96
2022-08-09T15:30:58.490Z,32.96
2022-08-09T15:32:35.722Z,32.30
2022-08-09T15:35:18.482Z,32.14
2022-08-09T15:37:57.197Z,32.07
2022-08-09T15:40:37.753Z,32.65
2022-08-09T15:43:13.439Z,32.43
2022-08-09T15:46:08.192Z,32.42
2022-08-09T15:48:31.751Z,31.81
2022-08-09T15:51:02.045Z,31.30
2022-08-09T15:54:04.778Z,31.57
2022-08-09T15:56:29.388Z,31.42
2022-08-09T15:58:58.289Z,31.44
2022-08-09T16:01:25.342Z,31.73
2022-08-09T16:03:52.337Z,31.24
2022-08-09T16:06:32.781Z,31.40
2022-08-09T16:09:05.034Z,31.53
2022-08-09T16:11:33.226Z,31.19
2022-08-09T16:14:03.529Z,31.55
2022-08-09T16:16:34.589Z,32.04
2022-08-09T16:19:05.343Z,31.53
2022-08-09T16:21:35.059Z,31.76
2022-08-09T16:24:04.551Z,31.29
2022-08-09T16:26:35.063Z,30.88
2022-08-09T16:29:10.517Z,30.86
2022-08-09T16:32:18.082Z,31.11
2022-08-09T16:34:27.216Z,30.75
2022-08-09T16:36:56.531Z,30.74
2022-08-09T16:39:25.983Z,30.68
2022-08-09T16:42:02.842Z,30.71
2022-08-09T16:44:31.595Z,30.32
2022-08-09T16:47:04.186Z,30.18
2022-08-09T16:50:29.921Z,30.05
2022-08-09T16:52:32.500Z,30.12
2022-08-09T16:54:59.351Z,30.29
2022-08-09T16:57:26.045Z,29.57
2022-08-09T17:00:14.071Z,29.76
2022-08-09T17:02:42.734Z,29.82
2022-08-09T17:05:14.258Z,29.62
2022-08-09T17:08:42.777Z,29.40
2022-08-09T17:10:33.902Z,29.26
2022-08-09T17:13:01.521Z,29.11
2022-08-09T17:15:58.624Z,28.74
2022-08-09T17:18:15.434Z,28.82
2022-08-09T17:20:49.189Z,28.71
2022-08-09T17:23:20.202Z,28.62
2022-08-09T17:25:52.819Z,28.30
2022-08-09T17:28:20.027Z,28.08
2022-08-09T17:30:47.859Z,27.94
2022-08-09T17:33:22.763Z,28.12
2022-08-09T17:35:50.015Z,27.86
2022-08-09T17:38:32.921Z,27.45
2022-08-09T17:41:03.574Z,27.40
2022-08-09T17:43:34.534Z,27.27
2022-08-09T17:46:06.931Z,27.43
2022-08-09T17:48:38.868Z,27.13
2022-08-09T17:51:19.103Z,26.96
2022-08-09T17:53:53.292Z,26.82
2022-08-09T17:56:35.488Z,26.70
2022-08-09T17:59:09.178Z,26.77
2022-08-09T18:01:57.898Z,26.55
2022-08-09T18:04:26.586Z,26.55
2022-08-09T18:06:54.909Z,26.36
2022-08-09T18:09:25.230Z,26.73
2022-08-09T18:12:18.229Z,26.48
2022-08-09T18:14:53.961Z,26.17
2022-08-09T18:17:27.263Z,26.05
2022-08-09T18:20:54.860Z,26.36
2022-08-09T18:23:05.477Z,25.99
2022-08-09T18:25:50.526Z,25.74
2022-08-09T18:30:38.040Z,25.88
2022-08-09T18:31:08.065Z,25.82
2022-08-09T18:33:34.764Z,25.81
2022-08-09T18:36:02.217Z,25.55
2022-08-09T18:38:28.979Z,25.68
2022-08-09T18:40:55.962Z,25.60
2022-08-09T18:43:24.569Z,25.78
2022-08-09T18:46:47.091Z,25.39
2022-08-09T18:48:38.199Z,25.35
2022-08-09T18:51:08.895Z,25.30
2022-08-09T18:53:56.289Z,25.21
2022-08-09T18:56:27.018Z,25.22
2022-08-09T18:58:55.960Z,25.17
2022-08-09T19:01:23.432Z,25.14
2022-08-09T19:04:01.584Z,25.15
2022-08-09T19:06:38.380Z,24.51
2022-08-09T19:09:07.155Z,24.44
2022-08-09T19:11:37.389Z,24.26
2022-08-09T19:14:05.172Z,24.17
2022-08-09T19:16:35.972Z,24.20
2022-08-09T19:19:21.260Z,24.27
2022-08-09T19:22:04.397Z,24.03
2022-08-09T19:24:39.339Z,24.16
2022-08-09T19:27:20.721Z,24.04
2022-08-09T19:30:22.513Z,23.85
2022-08-09T19:32:36.101Z,23.76
2022-08-09T19:35:04.953Z,23.82
2022-08-09T19:37:40.850Z,23.78
2022-08-09T19:40:19.614Z,23.62
2022-08-09T19:42:47.403Z,23.57
2022-08-09T19:45:16.459Z,23.59
2022-08-09T19:47:44.372Z,23.55
2022-08-09T19:50:49.420Z,23.56
2022-08-09T19:52:59.519Z,23.40
2022-08-09T19:55:52.704Z,23.31
2022-08-09T19:58:17.012Z,23.18
2022-08-09T20:00:45.481Z,23.11
2022-08-09T20:04:26.499Z,23.09
2022-08-09T20:06:00.139Z,23.09
2022-08-09T20:08:34.867Z,23.12
2022-08-09T20:11:04.720Z,22.68
2022-08-09T20:13:36.861Z,22.37
2022-08-09T20:16:35.697Z,22.26
2022-08-09T20:19:42.438Z,22.35
2022-08-09T20:21:55.065Z,22.31
2022-08-09T20:24:31.775Z,22.15
2022-08-09T20:27:02.625Z,22.04
2022-08-09T20:29:37.465Z,21.93
2022-08-09T20:32:29.907Z,22.00
2022-08-09T20:34:56.603Z,21.96
2022-08-09T20:37:23.747Z,21.92
2022-08-09T20:40:16.347Z,21.84
2022-08-09T20:42:37.968Z,21.77
2022-08-09T20:45:58.716Z,21.84
2022-08-09T20:47:52.867Z,21.60
2022-08-09T20:50:47.602Z,21.66
2022-08-09T20:53:34.924Z,21.45
2022-08-09T20:56:00.647Z,21.38
2022-08-09T20:58:32.859Z,21.44
2022-08-09T21:01:33.698Z,21.36
2022-08-09T21:04:08.347Z,21.22
2022-08-09T21:06:35.827Z,21.09
2022-08-09T21:09:02.794Z,21.19
2022-08-09T21:14:17.351Z,20.99
2022-08-09T21:16:45.858Z,20.96
2022-08-09T21:20:18.436Z,21.08
2022-08-09T21:22:00.017Z,20.86
2022-08-09T21:24:28.989Z,20.83
2022-08-09T21:26:59.449Z,20.81
2022-08-09T21:29:26.113Z,20.75
2022-08-09T21:31:53.951Z,20.59
2022-08-09T21:34:29.370Z,20.56
2022-08-09T21:36:56.760Z,20.47
2022-08-09T21:39:27.956Z,20.42
2022-08-09T21:42:06.102Z,20.41
2022-08-09T21:44:38.001Z,20.49
2022-08-09T21:47:07.835Z,20.50
2022-08-09T21:49:39.638Z,20.54
2022-08-09T21:52:16.408Z,20.45
2022-08-09T21:54:50.551Z,20.19
2022-08-09T21:57:37.154Z,20.26
2022-08-09T22:00:25.306Z,20.44
2022-08-09T22:02:58.270Z,20.01
2022-08-09T22:05:37.285Z,20.13
2022-08-09T22:08:13.161Z,20.03
2022-08-09T22:11:49.645Z,19.60
2022-08-09T22:13:34.645Z,19.86
2022-08-09T22:16:07.140Z,19.95
2022-08-09T22:18:34.036Z,19.94
2022-08-09T22:21:01.304Z,19.98
2022-08-09T22:23:35.407Z,19.87
2022-08-09T22:26:06.308Z,19.80
2022-08-09T22:28:43.585Z,19.94
2022-08-09T22:31:20.910Z,19.99
2022-08-09T22:33:49.134Z,19.83
2022-08-09T22:36:21.798Z,19.87
2022-08-09T22:38:49.023Z,19.88
2022-08-09T22:41:15.821Z,19.80
2022-08-09T22:44:01.622Z,20.02
2022-08-09T22:48:12.673Z,20.19
2022-08-09T22:49:16.275Z,20.18
2022-08-09T22:51:49.167Z,20.31
2022-08-09T22:54:21.287Z,20.22
2022-08-09T22:56:54.723Z,20.30
2022-08-09T22:59:57.765Z,20.71
2022-08-09T23:02:11.150Z,20.63
2022-08-09T23:04:43.753Z,20.70
2022-08-09T23:08:21.709Z,20.40
2022-08-09T23:10:26.899Z,20.45
2022-08-09T23:12:53.564Z,20.47
2022-08-09T23:15:20.378Z,20.54
2022-08-09T23:17:47.090Z,20.64
2022-08-09T23:20:13.798Z,20.49
2022-08-09T23:22:40.538Z,20.42
2022-08-09T23:25:08.047Z,20.52
2022-08-09T23:27:34.935Z,20.58
2022-08-09T23:30:01.819Z,20.46
2022-08-09T23:32:28.715Z,20.57
2022-08-09T23:34:55.330Z,20.47
2022-08-09T23:37:22.804Z,20.39
2022-08-09T23:39:52.487Z,20.32
2022-08-09T23:42:19.098Z,20.19
2022-08-09T23:44:45.876Z,20.12
2022-08-09T23:47:12.511Z,20.02
2022-08-09T23:49:39.164Z,20.09
2022-08-09T23:52:05.845Z,20.11
2022-08-09T23:54:32.679Z,20.10
2022-08-09T23:56:59.563Z,20.04
2022-08-09T23:59:46.356Z,19.97
